Time;durP1;ratioP1;P1;durP2;ratioP2;P2;SDS_P1;SDS_P2;PMS_P1;PMS_P2;Temp;Humidity;BMP_temperature;BMP_pressure;BME280_temperature;BME280_humidity;BME280_pressure;Samples;Min_cycle;Max_cycle;Signal;HPM_P1;HPM_P2
2022/03/20 00:00:31;;;;;;;11.95;6.95;;;;;;;4.16;88.71;103810.88;4984937;28;20124;-70
2022/03/20 00:02:57;;;;;;;10.27;6.25;;;;;;;4.15;89.04;103808.19;5001641;28;20282;-70
2022/03/20 00:05:23;;;;;;;12.13;6.88;;;;;;;4.17;89.35;103810.03;5002612;28;20034;-70
2022/03/20 00:07:49;;;;;;;11.30;7.25;;;;;;;4.15;89.18;103801.19;5004136;28;20412;-69
2022/03/20 00:10:15;;;;;;;11.00;7.00;;;;;;;4.11;89.12;103801.06;5001443;28;20056;-69
2022/03/20 00:12:41;;;;;;;11.82;6.85;;;;;;;4.08;89.50;103805.38;5005429;28;20038;-70
2022/03/20 00:15:08;;;;;;;13.00;7.45;;;;;;;4.06;89.22;103800.94;5003634;28;20049;-71
2022/03/20 00:17:34;;;;;;;9.23;6.53;;;;;;;4.04;89.54;103797.41;4998130;28;20480;-70
2022/03/20 00:19:59;;;;;;;10.45;7.10;;;;;;;3.97;89.40;103801.56;5003957;28;20107;-70
2022/03/20 00:22:26;;;;;;;10.30;6.35;;;;;;;3.94;89.41;103791.00;5001687;28;20116;-70
2022/03/20 00:24:52;;;;;;;10.75;7.88;;;;;;;3.88;89.62;103794.28;4999103;28;20456;-70
2022/03/20 00:27:18;;;;;;;11.60;6.57;;;;;;;3.85;89.65;103786.34;4985118;28;20099;-70
2022/03/20 00:29:44;;;;;;;13.98;7.45;;;;;;;3.82;89.60;103782.75;5002680;28;20520;-70
2022/03/20 00:32:13;;;;;;;10.48;7.10;;;;;;;3.77;90.30;103775.63;5002483;28;20040;-70
2022/03/20 00:34:39;;;;;;;13.48;7.57;;;;;;;3.74;90.19;103777.25;5001612;28;20071;-71
2022/03/20 00:37:06;;;;;;;12.75;7.35;;;;;;;3.71;90.47;103764.94;5003382;28;20554;-70
2022/03/20 00:39:33;;;;;;;10.77;6.75;;;;;;;3.70;90.37;103765.81;5001867;28;20034;-70
2022/03/20 00:41:58;;;;;;;10.60;7.07;;;;;;;3.66;90.87;103759.59;4982348;28;20162;-70
2022/03/20 00:44:24;;;;;;;14.57;7.57;;;;;;;3.62;91.10;103765.59;4984442;28;20165;-71
2022/03/20 00:46:49;;;;;;;11.90;7.35;;;;;;;3.59;90.60;103762.84;5002738;28;20444;-70
2022/03/20 00:49:16;;;;;;;10.35;7.07;;;;;;;3.58;91.17;103752.31;4985300;28;20033;-70
2022/03/20 00:51:42;;;;;;;12.75;7.95;;;;;;;3.54;91.27;103746.09;4985101;28;20034;-70
2022/03/20 00:54:08;;;;;;;12.27;6.63;;;;;;;3.49;91.46;103753.81;4999038;28;20025;-71
2022/03/20 00:56:34;;;;;;;12.90;7.57;;;;;;;3.45;91.94;103743.22;4999164;28;20041;-70
2022/03/20 00:59:00;;;;;;;14.25;7.68;;;;;;;3.40;91.95;103741.31;4983799;28;20077;-71
2022/03/20 01:01:29;;;;;;;12.25;8.63;;;;;;;3.34;92.18;103730.69;4991303;28;20773;-71
2022/03/20 01:03:55;;;;;;;12.98;7.97;;;;;;;3.32;92.04;103737.59;4988976;28;20021;-71
2022/03/20 01:06:22;;;;;;;11.13;7.90;;;;;;;3.29;91.90;103734.88;4985358;28;20026;-70
2022/03/20 01:08:49;;;;;;;10.85;7.50;;;;;;;3.26;92.93;103726.91;5004591;28;20038;-70
2022/03/20 01:11:15;;;;;;;13.07;7.78;;;;;;;3.24;93.07;103729.50;4987355;28;20378;-70
2022/03/20 01:13:41;;;;;;;13.18;7.95;;;;;;;3.22;92.88;103727.69;5007480;28;20508;-70
2022/03/20 01:16:06;;;;;;;14.20;8.80;;;;;;;3.20;92.87;103722.38;5004432;28;20045;-70
2022/03/20 01:18:32;;;;;;;13.18;8.40;;;;;;;3.19;93.65;103719.69;4987594;28;20056;-70
2022/03/20 01:20:58;;;;;;;13.82;8.10;;;;;;;3.16;93.23;103715.25;5005312;28;20494;-70
2022/03/20 01:23:23;;;;;;;14.43;8.25;;;;;;;3.15;93.44;103710.00;5006625;28;20422;-71
2022/03/20 01:25:49;;;;;;;12.77;8.50;;;;;;;3.12;93.81;103703.78;5002797;28;20535;-70
2022/03/20 01:28:16;;;;;;;13.85;8.80;;;;;;;3.11;93.79;103698.53;4986586;28;20041;-71
2022/03/20 01:30:42;;;;;;;13.32;8.30;;;;;;;3.08;94.08;103690.56;4989821;28;20508;-71
2022/03/20 01:33:08;;;;;;;14.27;8.18;;;;;;;3.05;94.26;103691.34;4977318;28;21339;-70
2022/03/20 01:35:34;;;;;;;13.13;8.30;;;;;;;3.03;94.54;103685.19;5005086;28;21562;-70
2022/03/20 01:37:59;;;;;;;16.23;8.23;;;;;;;3.03;94.65;103687.81;4986498;28;20249;-70
2022/03/20 01:40:25;;;;;;;12.52;8.32;;;;;;;2.98;94.48;103681.53;5005107;28;20666;-71
2022/03/20 01:42:51;;;;;;;13.45;8.23;;;;;;;2.94;94.60;103672.69;4987371;28;20087;-71
2022/03/20 01:45:22;;;;;;;13.13;8.32;;;;;;;2.91;94.56;103672.59;4987089;28;20172;-71
2022/03/20 01:47:49;;;;;;;12.88;8.00;;;;;;;2.87;95.07;103670.72;5004118;28;20563;-70
2022/03/20 01:50:17;;;;;;;12.55;8.55;;;;;;;2.87;94.66;103673.34;5005282;28;20124;-71
2022/03/20 01:52:47;;;;;;;16.13;8.82;;;;;;;2.85;95.17;103664.56;5003562;28;20128;-70
2022/03/20 01:55:15;;;;;;;16.85;9.25;;;;;;;2.84;94.69;103655.81;4969927;28;20566;-70
2022/03/20 01:57:41;;;;;;;15.32;8.75;;;;;;;2.85;94.71;103657.56;5005411;28;20744;-70
2022/03/20 02:00:09;;;;;;;17.13;8.77;;;;;;;2.83;94.56;103648.78;4985503;28;20065;-71
2022/03/20 02:02:34;;;;;;;16.70;8.60;;;;;;;2.83;94.59;103656.66;5001310;28;20622;-70
2022/03/20 02:05:01;;;;;;;16.00;8.68;;;;;;;2.81;95.01;103640.03;4988418;28;20100;-70
2022/03/20 02:07:27;;;;;;;18.02;8.98;;;;;;;2.83;94.88;103635.72;5006433;28;20029;-71
2022/03/20 02:09:52;;;;;;;19.63;8.32;;;;;;;2.83;94.76;103629.59;4987873;28;20049;-69
2022/03/20 02:12:18;;;;;;;16.27;9.85;;;;;;;2.80;94.75;103629.50;5005256;28;20389;-70
2022/03/20 02:14:43;;;;;;;17.45;10.07;;;;;;;2.77;94.78;103622.44;5005812;28;20068;-70
2022/03/20 02:17:10;;;;;;;16.63;9.43;;;;;;;2.77;95.15;103624.19;5005703;28;20602;-70
2022/03/20 02:19:37;;;;;;;16.85;9.38;;;;;;;2.74;94.40;103617.13;5005387;28;20152;-70
2022/03/20 02:22:03;;;;;;;17.25;9.48;;;;;;;2.72;94.63;103614.44;4987090;28;20447;-70
2022/03/20 02:24:44;;;;;;;15.20;9.95;;;;;;;2.71;94.85;103617.00;5003999;28;20139;-70
2022/03/20 02:27:09;;;;;;;17.17;9.85;;;;;;;2.69;94.53;103601.28;5004710;28;20037;-70
2022/03/20 02:29:36;;;;;;;19.85;10.00;;;;;;;2.69;94.60;103593.44;5004200;28;20127;-70
2022/03/20 02:32:05;;;;;;;18.48;10.02;;;;;;;2.68;94.78;103588.13;5002885;28;20041;-70
2022/03/20 02:34:31;;;;;;;17.23;10.02;;;;;;;2.67;94.77;103582.00;5003586;28;20040;-70
2022/03/20 02:36:57;;;;;;;15.75;10.18;;;;;;;2.65;94.76;103577.56;4973180;28;20041;-71
2022/03/20 02:39:23;;;;;;;15.90;9.52;;;;;;;2.61;94.61;103568.72;5001870;28;20125;-70
2022/03/20 02:41:50;;;;;;;18.02;10.63;;;;;;;2.59;94.64;103573.03;4985673;28;20036;-70
2022/03/20 02:44:16;;;;;;;17.02;9.90;;;;;;;2.58;95.25;103569.50;4992584;28;20034;-70
2022/03/20 02:46:42;;;;;;;19.90;11.23;;;;;;;2.56;94.68;103571.19;5003091;28;20030;-70
2022/03/20 02:49:10;;;;;;;20.58;10.52;;;;;;;2.52;94.89;103574.56;4988361;28;20041;-70
2022/03/20 02:51:36;;;;;;;17.83;10.68;;;;;;;2.49;94.82;103560.47;4988798;28;20033;-70
2022/03/20 02:54:06;;;;;;;17.88;10.75;;;;;;;2.46;94.59;103556.06;4967854;28;20049;-70
2022/03/20 02:56:33;;;;;;;19.48;11.18;;;;;;;2.44;94.76;103552.50;5004115;28;20493;-71
2022/03/20 02:59:00;;;;;;;17.88;10.93;;;;;;;2.42;94.79;103560.31;4974740;28;20392;-70
2022/03/20 03:01:26;;;;;;;19.83;10.88;;;;;;;2.40;94.87;103554.13;4989283;28;20518;-70
2022/03/20 03:03:53;;;;;;;19.77;11.70;;;;;;;2.38;94.81;103554.91;4987559;28;20327;-70
2022/03/20 03:06:19;;;;;;;16.92;11.65;;;;;;;2.34;94.92;103545.19;4983873;28;20033;-71
2022/03/20 03:11:29;;;;;;;20.00;10.90;;;;;;;2.27;94.58;103537.16;5003256;28;20384;-71
2022/03/20 03:13:54;;;;;;;19.50;11.52;;;;;;;2.26;94.88;103519.69;5004596;28;20048;-70
2022/03/20 03:16:20;;;;;;;19.08;11.25;;;;;;;2.26;94.61;103519.69;5004705;28;20272;-70
2022/03/20 03:18:47;;;;;;;22.30;11.82;;;;;;;2.25;94.45;103523.16;5004376;28;20609;-70
2022/03/20 03:21:14;;;;;;;17.17;11.05;;;;;;;2.23;94.79;103530.03;5004719;28;20029;-70
2022/03/20 03:23:40;;;;;;;18.95;11.88;;;;;;;2.23;95.10;103508.25;5004084;28;20056;-70
2022/03/20 03:26:06;;;;;;;19.40;11.38;;;;;;;2.21;94.53;103518.66;4984981;28;20037;-70
2022/03/20 03:28:36;;;;;;;18.60;12.02;;;;;;;2.20;94.50;103513.38;5004250;28;20665;-70
2022/03/20 03:31:09;;;;;;;19.40;11.95;;;;;;;2.15;94.46;103514.13;4986570;28;20493;-70
2022/03/20 03:33:35;;;;;;;;;;;;;;;2.15;95.39;103521.97;5002900;28;20043;-70
2022/03/20 03:36:01;;;;;;;20.23;11.27;;;;;;;2.12;94.54;103515.75;5000656;28;19943;-69
2022/03/20 03:38:34;;;;;;;19.98;11.90;;;;;;;2.10;94.84;103520.91;4985005;28;20029;-70
2022/03/20 03:41:00;;;;;;;20.90;12.18;;;;;;;2.09;94.63;103497.34;5003244;28;20399;-70
2022/03/20 03:43:25;;;;;;;19.50;10.75;;;;;;;2.06;94.35;103500.75;5003894;28;20037;-71
2022/03/20 03:45:53;;;;;;;21.58;11.77;;;;;;;2.05;94.40;103495.47;5001009;28;20029;-71
2022/03/20 03:48:19;;;;;;;23.55;12.95;;;;;;;2.01;94.29;103497.97;4985388;28;20033;-70
2022/03/20 03:50:46;;;;;;;21.75;13.32;;;;;;;1.98;94.43;103490.06;5004463;28;20087;-70
2022/03/20 03:53:12;;;;;;;21.75;12.50;;;;;;;1.97;94.68;103484.75;5004848;28;20121;-71
2022/03/20 03:55:38;;;;;;;21.38;13.40;;;;;;;1.96;94.44;103493.44;4983447;28;20130;-71
2022/03/20 03:58:04;;;;;;;22.23;12.77;;;;;;;1.94;94.67;103485.53;5002192;28;20385;-70
2022/03/20 04:00:32;;;;;;;25.35;13.15;;;;;;;1.93;94.28;103482.88;5002073;28;20059;-70
2022/03/20 04:02:59;;;;;;;23.10;12.60;;;;;;;1.91;94.43;103464.56;5000953;28;20166;-70
2022/03/20 04:05:25;;;;;;;22.92;13.25;;;;;;;1.89;94.37;103468.81;5003034;28;20033;-70
2022/03/20 04:07:50;;;;;;;19.38;12.38;;;;;;;1.89;94.29;103471.44;5004064;28;20088;-70
2022/03/20 04:10:17;;;;;;;25.58;13.23;;;;;;;1.87;94.18;103468.75;4984716;28;20734;-70
2022/03/20 04:12:44;;;;;;;19.80;12.77;;;;;;;1.85;93.93;103449.53;4987182;28;20037;-70
2022/03/20 04:15:10;;;;;;;28.70;13.73;;;;;;;1.83;93.97;103453.84;5002796;28;20080;-70
2022/03/20 04:17:37;;;;;;;22.08;13.30;;;;;;;1.82;93.92;103452.06;5003855;28;20041;-70
2022/03/20 04:20:04;;;;;;;27.30;13.88;;;;;;;1.81;93.93;103455.53;5003777;28;20255;-69
2022/03/20 04:22:30;;;;;;;22.33;14.48;;;;;;;1.75;93.54;103450.97;5003133;28;20044;-71
2022/03/20 04:24:56;;;;;;;28.60;13.82;;;;;;;1.76;93.17;103446.63;4981433;28;20188;-70
2022/03/20 04:27:22;;;;;;;23.50;14.40;;;;;;;1.76;93.46;103457.97;4985176;28;20038;-70
2022/03/20 04:29:48;;;;;;;25.35;14.40;;;;;;;1.75;93.11;103452.72;5002085;28;20029;-70
2022/03/20 04:32:14;;;;;;;21.88;14.05;;;;;;;1.73;92.98;103449.13;4984457;28;20032;-70
2022/03/20 04:34:41;;;;;;;23.52;14.82;;;;;;;1.72;92.70;103448.25;5002566;28;20431;-70
2022/03/20 04:37:08;;;;;;;24.52;14.60;;;;;;;1.72;92.39;103445.66;5006445;28;20037;-70
2022/03/20 04:39:34;;;;;;;21.70;12.85;;;;;;;1.69;92.00;103442.03;4992651;28;20440;-70
2022/03/20 04:42:00;;;;;;;21.83;15.10;;;;;;;1.69;92.05;103442.03;5005642;28;20269;-71
2022/03/20 04:44:26;;;;;;;29.02;14.88;;;;;;;1.65;92.04;103441.06;5005905;28;20033;-70
2022/03/20 04:46:52;;;;;;;23.10;14.18;;;;;;;1.62;91.95;103440.94;5005815;28;20395;-70
2022/03/20 05:00:11;;;;;;;29.50;16.10;;;;;;;1.56;91.75;103414.63;5004764;28;20030;-70
2022/03/20 05:02:37;;;;;;;27.95;15.07;;;;;;;1.56;91.77;103418.13;5005619;28;20059;-71
2022/03/20 05:05:03;;;;;;;27.15;16.17;;;;;;;1.55;92.00;103415.44;5006745;28;20044;-71
2022/03/20 05:07:29;;;;;;;21.77;15.38;;;;;;;1.53;91.43;103414.53;5006127;28;20032;-70
2022/03/20 05:15:22;;;;;;;25.95;15.30;;;;;;;1.49;90.69;103403.97;5000691;28;20159;-70
2022/03/20 05:17:48;;;;;;;26.75;16.50;;;;;;;1.50;90.81;103389.19;4987844;28;20106;-70
2022/03/20 05:20:14;;;;;;;26.85;15.48;;;;;;;1.48;90.64;103399.56;5004707;28;20404;-69
2022/03/20 05:22:40;;;;;;;27.90;16.88;;;;;;;1.48;90.67;103389.13;5006019;28;20041;-70
2022/03/20 05:25:10;;;;;;;29.63;16.13;;;;;;;1.47;90.66;103391.72;4987400;28;20025;-70
2022/03/20 05:27:37;;;;;;;22.52;13.98;;;;;;;1.45;90.52;103396.88;4987865;28;20697;-70
2022/03/20 05:30:05;;;;;;;25.13;14.30;;;;;;;1.42;90.60;103383.69;5005924;28;20025;-70
2022/03/20 05:32:32;;;;;;;27.05;14.00;;;;;;;1.41;90.98;103376.72;5007095;28;20500;-70
2022/03/20 05:34:58;;;;;;;27.33;15.80;;;;;;;1.38;90.54;103384.44;5004994;28;20052;-71
2022/03/20 05:37:24;;;;;;;25.23;16.50;;;;;;;1.37;90.87;103387.00;5006842;28;21853;-70
2022/03/20 05:39:49;;;;;;;28.40;16.80;;;;;;;1.35;90.78;103368.66;5004860;28;20048;-71
2022/03/20 05:42:15;;;;;;;26.48;16.75;;;;;;;1.34;91.03;103365.19;5005136;28;20549;-70
2022/03/20 05:44:41;;;;;;;24.25;16.40;;;;;;;1.34;90.94;103359.06;5002968;28;20029;-70
2022/03/20 05:47:07;;;;;;;23.35;15.45;;;;;;;1.34;90.38;103356.47;5004423;28;20037;-70
2022/03/20 05:49:32;;;;;;;25.83;15.88;;;;;;;1.34;90.68;103353.84;5005218;28;20029;-70
2022/03/20 05:51:59;;;;;;;26.95;16.25;;;;;;;1.34;90.68;103357.34;5006052;28;20121;-71
2022/03/20 05:54:25;;;;;;;25.75;15.77;;;;;;;1.34;90.46;103356.47;5003144;28;20396;-70
2022/03/20 05:59:36;;;;;;;29.17;17.63;;;;;;;1.32;90.16;103345.94;5000951;28;20037;-70
2022/03/20 06:02:02;;;;;;;28.50;15.18;;;;;;;1.31;90.16;103333.75;5006115;28;20470;-70
2022/03/20 06:04:27;;;;;;;28.20;15.65;;;;;;;1.32;90.27;103337.25;4986455;28;20041;-70
2022/03/20 06:06:53;;;;;;;27.38;17.60;;;;;;;1.33;90.43;103331.19;5003552;28;21783;-71
2022/03/20 06:09:18;;;;;;;25.55;15.90;;;;;;;1.33;90.36;103328.59;5002725;28;20557;-70
2022/03/20 06:11:44;;;;;;;26.77;15.27;;;;;;;1.33;90.19;103323.38;4970833;28;20049;-71
2022/03/20 06:14:10;;;;;;;29.58;18.50;;;;;;;1.35;90.21;103311.22;4968103;28;20132;-71
2022/03/20 06:16:36;;;;;;;30.70;17.98;;;;;;;1.38;90.32;103316.56;4984030;28;20176;-69
2022/03/20 06:19:02;;;;;;;28.17;16.58;;;;;;;1.38;89.71;103310.44;4985270;28;20412;-70
2022/03/20 06:21:28;;;;;;;30.02;18.10;;;;;;;1.40;89.46;103319.22;4985353;28;20034;-70
2022/03/20 06:23:55;;;;;;;24.92;16.00;;;;;;;1.41;89.86;103311.44;4952408;28;20036;-69
2022/03/20 06:26:21;;;;;;;30.67;17.23;;;;;;;1.42;90.12;103307.13;4983278;28;20162;-70
2022/03/20 06:28:48;;;;;;;28.27;18.52;;;;;;;1.44;90.17;103308.94;4984596;28;20054;-70
2022/03/20 06:31:15;;;;;;;28.50;17.90;;;;;;;1.44;89.36;103301.13;4985366;28;20033;-70
2022/03/20 06:33:43;;;;;;;29.58;16.65;;;;;;;1.45;89.25;103297.66;4982925;28;20045;-70
2022/03/20 06:36:09;;;;;;;31.38;18.42;;;;;;;1.47;88.86;103301.19;4985808;28;20045;-70
2022/03/20 06:38:35;;;;;;;25.10;17.60;;;;;;;1.51;88.71;103296.09;4982135;28;20922;-70
2022/03/20 06:41:00;;;;;;;28.70;17.25;;;;;;;1.52;88.33;103292.63;4982057;28;20030;-70
2022/03/20 06:43:27;;;;;;;29.50;17.48;;;;;;;1.54;88.93;103299.69;4984239;28;20404;-70
2022/03/20 06:45:54;;;;;;;28.98;17.63;;;;;;;1.56;87.92;103284.03;4984603;28;20061;-70
2022/03/20 06:48:19;;;;;;;27.25;17.85;;;;;;;1.59;88.06;103276.31;4988653;28;20049;-69
2022/03/20 06:50:48;;;;;;;29.67;17.75;;;;;;;1.61;87.45;103278.16;4967629;28;20034;-70
2022/03/20 06:53:13;;;;;;;27.38;17.42;;;;;;;1.65;87.82;103286.06;4988357;28;20429;-70
2022/03/20 06:55:39;;;;;;;24.20;16.17;;;;;;;1.63;86.76;103279.06;4981759;28;20124;-70
2022/03/20 06:58:05;;;;;;;26.70;16.73;;;;;;;1.66;86.86;103285.22;4984666;28;20340;-71
2022/03/20 07:00:31;;;;;;;29.48;18.15;;;;;;;1.67;86.36;103277.44;4985206;28;20472;-70
2022/03/20 07:03:03;;;;;;;32.33;18.58;;;;;;;1.69;85.75;103278.38;4979132;28;20026;-70
2022/03/20 07:05:28;;;;;;;28.15;18.45;;;;;;;1.72;86.53;103277.56;4998457;28;21950;-70
2022/03/20 07:07:54;;;;;;;33.20;20.02;;;;;;;1.74;86.23;103274.19;5000048;28;20116;-70
2022/03/20 07:10:24;;;;;;;29.88;19.50;;;;;;;1.76;86.26;103282.06;4983536;28;20555;-70
2022/03/20 07:12:50;;;;;;;32.13;18.88;;;;;;;1.78;85.94;103275.16;5000519;28;20300;-71
2022/03/20 07:15:19;;;;;;;30.42;17.52;;;;;;;1.83;85.45;103270.06;5001800;28;20046;-70
2022/03/20 07:17:48;;;;;;;31.45;18.15;;;;;;;1.86;85.77;103264.94;4971861;28;20094;-70
2022/03/20 07:20:16;;;;;;;31.90;16.85;;;;;;;1.87;85.46;103254.50;5000976;28;20661;-70
2022/03/20 07:22:43;;;;;;;28.60;18.40;;;;;;;1.91;85.19;103250.31;4983623;28;20037;-70
2022/03/20 07:30:43;;;;;;;30.42;18.20;;;;;;;2.07;85.07;103255.97;5003530;28;20219;-70
2022/03/20 07:33:08;;;;;;;30.13;18.67;;;;;;;2.13;84.65;103250.91;5001266;28;20802;-70
2022/03/20 07:35:34;;;;;;;30.30;18.00;;;;;;;2.16;83.23;103249.28;4984976;28;20045;-69
2022/03/20 07:37:59;;;;;;;28.52;15.90;;;;;;;2.21;83.59;103259.84;5002717;28;20072;-70
2022/03/20 07:40:25;;;;;;;27.58;17.48;;;;;;;2.27;83.13;103246.06;4984172;28;20506;-70
2022/03/20 07:42:50;;;;;;;27.33;18.33;;;;;;;2.31;82.80;103238.34;4985533;28;20048;-71
2022/03/20 07:45:18;;;;;;;33.08;19.73;;;;;;;2.39;83.27;103240.31;4973678;28;20481;-71
2022/03/20 07:47:44;;;;;;;27.15;19.65;;;;;;;2.42;82.03;103245.59;5002306;28;20033;-72
2022/03/20 07:50:10;;;;;;;31.88;19.45;;;;;;;2.48;81.56;103243.16;4999932;28;23465;-71
2022/03/20 07:52:36;;;;;;;29.80;18.85;;;;;;;2.52;81.34;103242.41;5002160;28;20574;-70
2022/03/20 07:55:03;;;;;;;30.38;19.35;;;;;;;2.57;81.35;103222.47;4983447;28;20048;-70
2022/03/20 07:57:31;;;;;;;29.95;18.40;;;;;;;2.64;81.09;103217.41;4985390;28;20038;-71
2022/03/20 07:59:58;;;;;;;26.95;18.00;;;;;;;2.68;80.66;103206.19;5002805;28;20045;-71
2022/03/20 08:02:23;;;;;;;31.27;20.25;;;;;;;2.72;81.17;103205.41;5003472;28;20041;-70
2022/03/20 08:04:51;;;;;;;27.70;18.90;;;;;;;2.77;80.24;103209.03;4986938;28;20033;-71
2022/03/20 08:07:19;;;;;;;27.40;19.23;;;;;;;2.80;79.55;103185.56;4967495;28;20898;-70
2022/03/20 08:09:45;;;;;;;31.08;18.80;;;;;;;2.84;78.93;103195.25;4983531;28;20737;-70
2022/03/20 08:12:11;;;;;;;31.92;20.42;;;;;;;2.89;79.46;103178.78;4997573;28;20776;-70
2022/03/20 08:14:37;;;;;;;27.45;18.73;;;;;;;2.95;78.93;103185.03;5003206;28;20123;-70
2022/03/20 08:17:06;;;;;;;29.02;18.80;;;;;;;3.01;78.77;103166.00;4986014;28;20041;-70
2022/03/20 08:19:32;;;;;;;30.15;19.98;;;;;;;3.07;78.46;103170.47;4985699;28;20052;-70
2022/03/20 08:21:59;;;;;;;30.27;19.88;;;;;;;3.10;78.31;103166.19;5001098;28;20575;-70
2022/03/20 08:24:24;;;;;;;32.80;19.08;;;;;;;3.20;78.54;103179.50;5000953;28;20464;-70
2022/03/20 08:26:50;;;;;;;32.50;20.45;;;;;;;3.26;78.27;103171.78;4981769;28;20087;-69
2022/03/20 08:29:16;;;;;;;31.50;19.55;;;;;;;3.35;78.34;103165.88;5002967;28;20033;-70
2022/03/20 08:31:47;;;;;;;31.17;19.98;;;;;;;3.42;77.75;103161.66;5001916;28;20032;-70
2022/03/20 08:34:16;;;;;;;31.95;20.23;;;;;;;3.50;76.82;103157.47;4984484;28;20033;-70
2022/03/20 08:36:42;;;;;;;33.22;19.95;;;;;;;3.58;77.15;103158.50;5001520;28;20485;-70
2022/03/20 08:39:08;;;;;;;32.28;21.02;;;;;;;3.61;75.45;103150.72;5003125;28;20183;-70
2022/03/20 08:41:35;;;;;;;28.95;19.85;;;;;;;3.68;76.79;103154.34;4983694;28;20379;-70
2022/03/20 08:44:04;;;;;;;31.75;20.80;;;;;;;3.72;75.33;103157.91;5003787;28;20457;-69
2022/03/20 08:46:31;;;;;;;32.08;21.27;;;;;;;3.74;76.02;103141.38;5003843;28;20025;-72
2022/03/20 08:48:57;;;;;;;33.25;18.90;;;;;;;3.81;75.85;103152.84;4984625;28;20042;-72
2022/03/20 08:51:23;;;;;;;30.45;19.40;;;;;;;3.85;75.96;103144.19;4983856;28;20504;-71
2022/03/20 08:53:49;;;;;;;30.98;19.17;;;;;;;3.90;74.83;103150.44;5000747;28;20099;-71
2022/03/20 08:56:15;;;;;;;30.55;19.35;;;;;;;3.91;74.87;103135.56;4987133;28;20065;-72
2022/03/20 08:58:41;;;;;;;29.70;19.83;;;;;;;3.93;74.01;103128.63;5003269;28;20117;-69
2022/03/20 09:01:07;;;;;;;30.85;20.20;;;;;;;3.98;74.69;103131.34;5003460;28;20778;-70
2022/03/20 09:03:33;;;;;;;33.40;21.20;;;;;;;4.05;74.77;103118.34;4998095;28;20048;-70
2022/03/20 09:05:58;;;;;;;29.42;20.23;;;;;;;4.12;73.43;103122.00;5002426;28;20163;-71
2022/03/20 09:08:24;;;;;;;29.95;21.52;;;;;;;4.15;73.94;103114.16;5002721;28;20177;-71
2022/03/20 09:10:51;;;;;;;32.17;20.55;;;;;;;4.20;73.15;103111.66;4999936;28;20383;-71
2022/03/20 09:13:16;;;;;;;38.85;20.92;;;;;;;4.23;72.57;103110.81;4985069;28;20293;-71
2022/03/20 09:15:42;;;;;;;33.75;21.50;;;;;;;4.26;73.45;103101.28;4965857;28;20052;-71
2022/03/20 09:20:51;;;;;;;33.03;20.52;;;;;;;4.37;72.98;103106.69;4995253;28;20037;-71
2022/03/20 09:23:17;;;;;;;32.42;20.73;;;;;;;4.41;72.22;103097.13;4984306;28;20542;-72
2022/03/20 09:25:43;;;;;;;30.15;19.92;;;;;;;4.45;72.99;103091.06;5003643;28;20781;-72
2022/03/20 09:28:09;;;;;;;31.80;22.13;;;;;;;4.51;72.88;103085.06;5001759;28;20583;-71
2022/03/20 09:30:37;;;;;;;31.40;20.77;;;;;;;4.60;73.28;103090.44;4986391;28;20124;-72
2022/03/20 09:33:04;;;;;;;33.15;21.63;;;;;;;4.65;71.81;103075.66;5002647;28;20041;-72
2022/03/20 09:35:31;;;;;;;30.15;20.20;;;;;;;4.69;71.76;103069.56;5003004;28;20087;-73
2022/03/20 09:37:56;;;;;;;29.35;19.55;;;;;;;4.71;71.28;103075.75;5004941;28;20475;-72
2022/03/20 09:40:24;;;;;;;36.17;22.10;;;;;;;4.79;71.92;103067.09;5002617;28;20052;-72
2022/03/20 09:42:50;;;;;;;31.02;20.73;;;;;;;4.83;71.19;103051.41;4989152;28;20033;-73
2022/03/20 09:45:18;;;;;;;33.45;21.05;;;;;;;4.90;70.45;103052.38;5005445;28;20477;-72
2022/03/20 09:47:45;;;;;;;34.40;22.25;;;;;;;4.94;69.84;103054.19;5006093;28;20046;-72
2022/03/20 09:50:12;;;;;;;31.17;20.85;;;;;;;5.01;70.49;103063.03;5003999;28;20033;-73
2022/03/20 09:52:39;;;;;;;34.13;20.90;;;;;;;5.05;69.44;103056.09;5005959;28;20025;-72
2022/03/20 09:55:06;;;;;;;32.30;22.25;;;;;;;5.14;71.02;103045.69;5005631;28;20026;-71
2022/03/20 09:57:31;;;;;;;33.35;21.50;;;;;;;5.23;69.62;103039.69;4987373;28;20037;-72
2022/03/20 09:59:58;;;;;;;34.35;21.25;;;;;;;5.30;69.47;103041.53;5005512;28;20389;-72
2022/03/20 10:02:28;;;;;;;33.58;21.95;;;;;;;5.40;69.09;103024.13;4987152;28;20017;-71
2022/03/20 10:05:05;;;;;;;32.08;21.08;;;;;;;5.47;67.38;103025.94;4988326;28;20044;-71
2022/03/20 10:07:33;;;;;;;36.78;21.20;;;;;;;5.48;68.04;103014.56;4986505;28;20091;-72
2022/03/20 10:10:14;;;;;;;32.85;21.55;;;;;;;5.52;65.00;103013.75;5000495;28;20029;-73
2022/03/20 10:12:45;;;;;;;31.27;21.63;;;;;;;5.54;66.83;103012.00;4986391;28;20091;-73
2022/03/20 10:15:30;;;;;;;33.78;22.73;;;;;;;5.57;65.14;103003.28;5005386;28;20108;-73
2022/03/20 10:18:17;;;;;;;31.08;21.30;;;;;;;5.66;66.36;102989.34;5002954;28;20496;-73
2022/03/20 10:20:48;;;;;;;32.88;21.23;;;;;;;5.68;66.76;102977.09;4990884;28;20057;-72
2022/03/20 10:23:37;;;;;;;34.25;21.27;;;;;;;5.75;65.39;102970.13;4984988;28;20050;-72
2022/03/20 10:26:22;;;;;;;32.55;21.88;;;;;;;5.76;65.49;102957.00;4999877;28;20029;-72
2022/03/20 10:28:49;;;;;;;30.80;21.60;;;;;;;5.78;65.79;102950.00;5001143;28;20032;-72
2022/03/20 10:31:22;;;;;;;34.63;22.05;;;;;;;5.81;65.68;102939.53;5003012;28;20675;-73
2022/03/20 10:34:04;;;;;;;32.00;20.90;;;;;;;5.85;64.43;102940.44;4985987;28;20055;-72
2022/03/20 10:36:30;;;;;;;32.33;21.15;;;;;;;5.89;64.31;102936.94;4988211;28;20033;-72
2022/03/20 10:38:55;;;;;;;33.42;22.77;;;;;;;5.90;66.05;102928.22;4975641;28;20055;-73
2022/03/20 10:41:38;;;;;;;31.67;20.83;;;;;;;5.93;62.98;102932.59;5000585;28;20051;-71
2022/03/20 10:44:14;;;;;;;33.15;21.45;;;;;;;5.98;62.92;102923.91;4975702;28;20036;-73
2022/03/20 10:46:40;;;;;;;34.72;21.90;;;;;;;6.03;64.30;102908.19;5003671;28;20133;-72
2022/03/20 10:49:07;;;;;;;33.05;21.70;;;;;;;6.08;63.64;102916.97;5000845;28;20095;-71
2022/03/20 10:51:38;;;;;;;32.70;22.58;;;;;;;6.14;63.49;102905.63;4987240;28;20119;-72
2022/03/20 10:54:09;;;;;;;35.28;23.17;;;;;;;6.22;63.64;102892.53;4986145;28;20040;-72
2022/03/20 10:56:37;;;;;;;34.17;22.67;;;;;;;6.30;63.69;102893.44;5003089;28;20045;-72
2022/03/20 10:59:15;;;;;;;34.20;22.83;;;;;;;6.34;61.91;102905.75;4985415;28;20037;-71
2022/03/20 11:01:44;;;;;;;33.55;23.25;;;;;;;6.38;62.70;102899.59;4986565;28;20134;-72
2022/03/20 11:04:11;;;;;;;35.08;21.48;;;;;;;6.42;62.50;102899.63;5002618;28;20554;-73
2022/03/20 11:06:39;;;;;;;32.55;22.40;;;;;;;6.49;62.96;102897.03;4985014;28;20041;-71
2022/03/20 11:09:05;;;;;;;34.53;23.20;;;;;;;6.55;62.67;102885.66;4984771;28;20091;-72
2022/03/20 11:11:40;;;;;;;37.55;23.30;;;;;;;6.61;61.76;102885.69;4984504;28;20066;-72
2022/03/20 11:14:06;;;;;;;36.55;24.15;;;;;;;6.65;62.06;102871.66;5002399;28;20467;-72
2022/03/20 11:16:36;;;;;;;33.53;23.20;;;;;;;6.74;61.11;102867.28;5001013;28;20343;-73
2022/03/20 11:19:05;;;;;;;35.35;22.88;;;;;;;6.78;59.58;102845.38;5001507;28;20097;-72
2022/03/20 11:21:34;;;;;;;33.05;23.00;;;;;;;6.82;60.49;102847.16;4998988;28;20029;-72
2022/03/20 11:23:59;;;;;;;32.28;22.20;;;;;;;6.89;61.58;102843.66;4967626;28;20069;-73
2022/03/20 11:26:26;;;;;;;32.30;22.45;;;;;;;6.97;60.73;102837.53;4989053;28;20037;-72
2022/03/20 11:28:57;;;;;;;37.67;23.20;;;;;;;7.03;60.73;102853.34;4985039;28;20420;-73
2022/03/20 11:31:23;;;;;;;34.45;23.60;;;;;;;7.09;60.39;102840.19;4985987;28;20064;-72
2022/03/20 11:33:49;;;;;;;34.58;23.17;;;;;;;7.11;60.02;102829.63;5005537;28;20457;-72
2022/03/20 11:36:15;;;;;;;35.05;23.95;;;;;;;7.11;60.27;102819.97;5002346;28;20123;-72
2022/03/20 11:38:41;;;;;;;35.92;23.98;;;;;;;7.19;59.54;102834.03;5004334;28;20038;-72
2022/03/20 11:41:20;;;;;;;37.03;23.42;;;;;;;7.26;60.49;102840.19;4986015;28;20033;-72
2022/03/20 11:44:15;;;;;;;34.47;23.67;;;;;;;7.32;58.11;102841.94;5004187;28;20039;-72
2022/03/20 11:46:42;;;;;;;33.78;23.58;;;;;;;7.46;59.97;102840.19;4988264;28;20223;-73
2022/03/20 11:49:14;;;;;;;34.45;24.25;;;;;;;7.55;59.95;102827.88;5002307;28;20035;-72